createdAt,value
2023-01-18T00:00:18.294Z,1.51
2023-01-18T00:02:46.916Z,1.49
2023-01-18T00:05:15.001Z,1.47
2023-01-18T00:07:42.636Z,1.48
2023-01-18T00:10:11.214Z,1.47
2023-01-18T00:12:38.764Z,1.49
2023-01-18T00:15:09.434Z,1.50
2023-01-18T00:17:47.413Z,1.45
2023-01-18T00:20:15.473Z,1.47
2023-01-18T00:22:43.104Z,1.44
2023-01-18T00:25:11.784Z,1.46
2023-01-18T00:27:39.633Z,1.48
2023-01-18T00:30:12.607Z,1.49
2023-01-18T00:32:40.243Z,1.52
2023-01-18T00:35:08.259Z,1.52
2023-01-18T00:37:36.626Z,1.53
2023-01-18T00:40:06.758Z,1.54
2023-01-18T00:42:51.997Z,1.56
2023-01-18T00:45:20.969Z,1.61
2023-01-18T00:47:48.502Z,1.66
2023-01-18T00:50:16.353Z,1.65
2023-01-18T00:52:46.257Z,1.64
2023-01-18T00:55:15.391Z,1.65
2023-01-18T00:57:43.876Z,1.62
2023-01-18T01:00:15.236Z,1.64
2023-01-18T01:02:44.282Z,1.66
2023-01-18T01:05:35.708Z,1.65
2023-01-18T01:08:03.775Z,1.67
2023-01-18T01:10:31.379Z,1.67
2023-01-18T01:13:16.667Z,1.67
2023-01-18T01:16:02.086Z,1.62
2023-01-18T01:18:48.658Z,1.62
2023-01-18T01:21:34.245Z,1.60
2023-01-18T01:24:19.385Z,1.60
2023-01-18T01:26:47.099Z,1.59
2023-01-18T01:29:15.920Z,1.63
2023-01-18T01:31:43.731Z,1.68
2023-01-18T01:34:12.682Z,1.73
2023-01-18T01:36:40.336Z,1.78
2023-01-18T01:39:10.872Z,1.82
2023-01-18T01:41:38.908Z,1.83
2023-01-18T01:44:43.033Z,1.86
2023-01-18T01:47:15.294Z,1.88
2023-01-18T01:49:48.072Z,1.90
2023-01-18T01:52:17.988Z,1.90
2023-01-18T01:54:50.138Z,1.87
2023-01-18T01:57:22.164Z,1.90
2023-01-18T01:59:53.516Z,1.89
2023-01-18T02:02:21.950Z,1.89
2023-01-18T02:04:54.195Z,1.91
2023-01-18T02:07:22.790Z,1.92
2023-01-18T02:09:52.435Z,1.95
2023-01-18T02:12:20.579Z,1.95
2023-01-18T02:14:48.414Z,1.93
2023-01-18T02:17:30.809Z,1.94
2023-01-18T02:20:27.163Z,1.94
2023-01-18T02:23:20.852Z,1.92
2023-01-18T02:26:18.879Z,1.87
2023-01-18T02:28:57.112Z,1.84
2023-01-18T02:31:29.751Z,1.79
2023-01-18T02:34:04.828Z,1.75
2023-01-18T02:36:40.538Z,1.74
2023-01-18T02:39:23.443Z,1.74
2023-01-18T02:42:14.567Z,1.75
2023-01-18T02:45:04.478Z,1.73
2023-01-18T02:47:34.037Z,1.68
2023-01-18T02:50:01.687Z,1.64
2023-01-18T02:52:41.348Z,1.59
2023-01-18T02:55:15.149Z,1.57
2023-01-18T02:57:42.812Z,1.56
2023-01-18T03:00:17.567Z,1.52
2023-01-18T03:02:48.887Z,1.46
2023-01-18T03:05:17.669Z,1.43
2023-01-18T03:07:51.700Z,1.50
2023-01-18T03:10:19.465Z,1.50
2023-01-18T03:12:57.758Z,1.50
2023-01-18T03:15:34.435Z,1.53
2023-01-18T03:18:11.379Z,1.55
2023-01-18T03:20:43.871Z,1.59
2023-01-18T03:23:35.396Z,1.60
2023-01-18T03:26:05.499Z,1.59
2023-01-18T03:28:54.153Z,1.60
2023-01-18T03:31:47.572Z,1.62
2023-01-18T03:34:22.441Z,1.63
2023-01-18T03:36:53.446Z,1.63
2023-01-18T03:39:28.355Z,1.66
2023-01-18T03:42:00.640Z,1.62
2023-01-18T03:44:35.073Z,1.60
2023-01-18T03:47:05.945Z,1.62
2023-01-18T03:49:35.902Z,1.66
2023-01-18T03:52:15.394Z,1.72
2023-01-18T03:54:51.929Z,1.74
2023-01-18T03:57:26.485Z,1.71
2023-01-18T03:59:54.217Z,1.67
2023-01-18T04:02:25.144Z,1.65
2023-01-18T04:04:57.389Z,1.61
2023-01-18T04:07:26.539Z,1.57
2023-01-18T04:09:54.182Z,1.55
2023-01-18T04:12:21.824Z,1.51
2023-01-18T04:14:49.381Z,1.47
2023-01-18T04:17:17.169Z,1.43
2023-01-18T04:19:46.188Z,1.43
2023-01-18T04:22:13.906Z,1.42
2023-01-18T04:24:41.555Z,1.40
2023-01-18T04:27:09.580Z,1.39
2023-01-18T04:29:37.170Z,1.35
2023-01-18T04:32:05.686Z,1.31
2023-01-18T04:34:33.359Z,1.28
2023-01-18T04:37:02.377Z,1.26
2023-01-18T04:39:30.203Z,1.28
2023-01-18T04:41:57.815Z,1.29
2023-01-18T04:44:25.510Z,1.33
2023-01-18T04:46:53.230Z,1.36
2023-01-18T04:49:20.861Z,1.40
2023-01-18T04:51:48.532Z,1.42
2023-01-18T04:54:19.108Z,1.44
2023-01-18T04:56:46.801Z,1.47
2023-01-18T04:59:16.481Z,1.48
2023-01-18T05:01:44.341Z,1.49
2023-01-18T05:04:11.952Z,1.47
2023-01-18T05:06:39.511Z,1.41
2023-01-18T05:09:07.770Z,1.42
2023-01-18T05:11:36.770Z,1.43
2023-01-18T05:14:04.386Z,1.45
2023-01-18T05:16:32.049Z,1.47
2023-01-18T05:18:59.677Z,1.43
2023-01-18T05:21:28.583Z,1.44
2023-01-18T05:23:56.161Z,1.41
2023-01-18T05:26:25.059Z,1.41
2023-01-18T05:28:57.929Z,1.41
2023-01-18T05:31:26.396Z,1.40
2023-01-18T05:33:54.170Z,1.43
2023-01-18T05:36:21.769Z,1.41
2023-01-18T05:38:49.589Z,1.43
2023-01-18T05:41:17.159Z,1.42
2023-01-18T05:43:44.715Z,1.41
2023-01-18T05:46:13.798Z,1.39
2023-01-18T05:48:41.476Z,1.38
2023-01-18T05:51:11.147Z,1.36
2023-01-18T05:53:39.754Z,1.38
2023-01-18T05:56:08.999Z,1.36
2023-01-18T05:58:37.256Z,1.32
2023-01-18T06:01:04.964Z,1.32
2023-01-18T06:03:33.997Z,1.32
2023-01-18T06:06:01.824Z,1.30
2023-01-18T06:08:29.594Z,1.29
2023-01-18T06:10:58.911Z,1.30
2023-01-18T06:13:28.344Z,1.29
2023-01-18T06:15:56.741Z,1.24
2023-01-18T06:18:25.971Z,1.24
2023-01-18T06:20:55.679Z,1.23
2023-01-18T06:23:23.295Z,1.19
2023-01-18T06:25:51.084Z,1.17
2023-01-18T06:28:19.668Z,1.13
2023-01-18T06:30:48.286Z,1.10
2023-01-18T06:33:16.093Z,1.04
2023-01-18T06:35:44.195Z,0.91
2023-01-18T06:38:14.003Z,0.82
2023-01-18T06:40:41.713Z,0.74
2023-01-18T06:43:10.271Z,0.68
2023-01-18T06:45:37.888Z,0.62
2023-01-18T06:48:05.676Z,0.57
2023-01-18T06:50:33.868Z,0.49
2023-01-18T06:53:01.585Z,0.44
2023-01-18T06:55:30.878Z,0.38
2023-01-18T06:57:58.538Z,0.32
2023-01-18T07:00:26.411Z,0.24
2023-01-18T07:02:54.003Z,0.17
2023-01-18T07:05:22.098Z,0.09
2023-01-18T07:07:49.706Z,0.06
2023-01-18T07:10:17.864Z,0.03
2023-01-18T07:12:48.738Z,0.00
2023-01-18T07:15:22.010Z,-0.04
2023-01-18T07:17:51.191Z,-0.08
2023-01-18T07:20:19.857Z,-0.09
2023-01-18T07:22:51.692Z,-0.12
2023-01-18T07:25:20.623Z,-0.17
2023-01-18T07:27:49.837Z,-0.18
2023-01-18T07:30:18.598Z,-0.21
2023-01-18T07:32:49.688Z,-0.25
2023-01-18T07:35:18.354Z,-0.26
2023-01-18T07:37:49.765Z,-0.28
2023-01-18T07:40:18.172Z,-0.30
2023-01-18T07:42:45.901Z,-0.31
2023-01-18T07:45:15.331Z,-0.32
2023-01-18T07:47:43.190Z,-0.33
2023-01-18T07:50:12.289Z,-0.33
2023-01-18T07:52:39.827Z,-0.33
2023-01-18T07:55:07.993Z,-0.35
2023-01-18T07:57:35.670Z,-0.37
2023-01-18T08:00:03.472Z,-0.37
2023-01-18T08:02:32.425Z,-0.37
2023-01-18T08:05:00.107Z,-0.37
2023-01-18T08:07:29.040Z,-0.35
2023-01-18T08:09:57.989Z,-0.34
2023-01-18T08:12:25.679Z,-0.31
2023-01-18T08:14:53.256Z,-0.30
2023-01-18T08:17:20.859Z,-0.30
2023-01-18T08:19:49.793Z,-0.28
2023-01-18T08:22:17.445Z,-0.27
2023-01-18T08:24:45.066Z,-0.25
2023-01-18T08:27:12.668Z,-0.23
2023-01-18T08:29:40.227Z,-0.24
2023-01-18T08:32:07.767Z,-0.24
2023-01-18T08:34:35.373Z,-0.27
2023-01-18T08:37:04.422Z,-0.27
2023-01-18T08:39:32.266Z,-0.26
2023-01-18T08:41:59.844Z,-0.25
2023-01-18T08:44:28.600Z,-0.22
2023-01-18T08:46:56.251Z,-0.20
2023-01-18T08:49:23.833Z,-0.19
2023-01-18T08:51:51.663Z,-0.20
2023-01-18T08:54:20.751Z,-0.17
2023-01-18T08:56:48.310Z,-0.17
2023-01-18T08:59:15.967Z,-0.14
2023-01-18T09:01:43.625Z,-0.14
2023-01-18T09:04:11.355Z,-0.08
2023-01-18T09:06:39.277Z,-0.01
2023-01-18T09:09:07.306Z,0.02
2023-01-18T09:11:36.215Z,0.08
2023-01-18T09:14:03.953Z,0.13
2023-01-18T09:16:32.533Z,0.20
2023-01-18T09:19:00.298Z,0.26
2023-01-18T09:21:29.083Z,0.34
2023-01-18T09:23:57.005Z,0.42
2023-01-18T09:26:24.600Z,0.44
2023-01-18T09:28:55.384Z,0.54
2023-01-18T09:31:26.626Z,0.57
2023-01-18T09:33:57.348Z,0.59
2023-01-18T09:36:28.689Z,0.63
2023-01-18T09:38:57.014Z,0.74
2023-01-18T09:41:32.074Z,0.80
2023-01-18T09:44:03.905Z,0.85
2023-01-18T09:46:36.418Z,0.94
2023-01-18T09:49:06.955Z,0.99
2023-01-18T09:51:43.975Z,1.09
2023-01-18T09:54:23.861Z,1.13
2023-01-18T09:56:59.529Z,1.20
2023-01-18T09:59:34.953Z,1.26
2023-01-18T10:02:04.436Z,1.29
2023-01-18T10:04:36.890Z,1.32
2023-01-18T10:07:08.148Z,1.39
2023-01-18T10:09:42.064Z,1.43
2023-01-18T10:12:21.586Z,1.49
2023-01-18T10:14:58.361Z,1.50
2023-01-18T10:17:33.182Z,1.59
2023-01-18T10:20:01.413Z,1.56
2023-01-18T10:22:32.748Z,1.56
2023-01-18T10:25:04.792Z,1.62
2023-01-18T10:28:08.246Z,1.68
2023-01-18T10:30:50.423Z,1.74
2023-01-18T10:33:21.423Z,1.62
2023-01-18T10:35:51.953Z,1.55
2023-01-18T10:38:23.223Z,1.61
2023-01-18T10:40:56.016Z,1.63
2023-01-18T10:43:25.548Z,1.55
2023-01-18T10:45:54.970Z,1.57
2023-01-18T10:48:28.016Z,1.73
2023-01-18T10:50:57.387Z,1.76
2023-01-18T10:53:31.915Z,1.86
2023-01-18T10:56:03.996Z,1.94
2023-01-18T10:58:38.514Z,2.06
2023-01-18T11:01:15.207Z,2.15
2023-01-18T11:03:47.537Z,2.28
2023-01-18T11:06:16.996Z,2.36
2023-01-18T11:08:45.010Z,2.39
2023-01-18T11:11:19.773Z,2.52
2023-01-18T11:13:48.957Z,2.61
2023-01-18T11:16:20.729Z,2.66
2023-01-18T11:19:02.726Z,2.66
2023-01-18T11:21:44.347Z,2.68
2023-01-18T11:24:16.628Z,2.72
2023-01-18T11:26:57.304Z,2.77
2023-01-18T11:29:28.803Z,2.83
2023-01-18T11:32:03.632Z,2.83
2023-01-18T11:34:33.500Z,2.86
2023-01-18T11:37:02.347Z,2.91
2023-01-18T11:39:33.664Z,2.92
2023-01-18T11:42:21.569Z,2.95
2023-01-18T11:45:08.185Z,3.02
2023-01-18T11:47:50.532Z,3.04
2023-01-18T11:50:28.916Z,3.01
2023-01-18T11:53:03.332Z,3.06
2023-01-18T11:55:36.039Z,3.12
2023-01-18T11:58:05.262Z,3.16
2023-01-18T12:00:46.179Z,3.25
2023-01-18T12:03:43.444Z,3.25
2023-01-18T12:06:22.916Z,3.23
2023-01-18T12:09:03.573Z,3.25
2023-01-18T12:11:47.913Z,3.33
2023-01-18T12:14:30.756Z,3.36
2023-01-18T12:17:15.521Z,3.39
2023-01-18T12:19:58.634Z,3.44
2023-01-18T12:23:04.421Z,3.49
2023-01-18T12:25:47.812Z,3.44
2023-01-18T12:28:26.863Z,3.48
2023-01-18T12:31:08.983Z,3.46
2023-01-18T12:33:49.554Z,3.34
2023-01-18T12:36:29.849Z,3.37
2023-01-18T12:38:58.158Z,3.34
2023-01-18T12:41:44.139Z,3.38
2023-01-18T12:44:43.129Z,3.37
2023-01-18T12:47:34.792Z,3.37
2023-01-18T12:50:07.928Z,3.37
2023-01-18T12:52:45.502Z,3.31
2023-01-18T12:55:21.026Z,3.37
2023-01-18T12:57:51.670Z,3.33
2023-01-18T13:00:23.459Z,3.35
2023-01-18T13:02:56.938Z,3.36
2023-01-18T13:05:35.048Z,3.37
2023-01-18T13:08:09.817Z,3.40
2023-01-18T13:10:38.686Z,3.34
2023-01-18T13:13:07.408Z,3.36
2023-01-18T13:15:44.607Z,3.38
2023-01-18T13:18:17.841Z,3.38
2023-01-18T13:20:58.971Z,3.38
2023-01-18T13:23:37.938Z,3.36
2023-01-18T13:26:20.356Z,3.35
2023-01-18T13:28:48.178Z,3.29
2023-01-18T13:31:16.331Z,3.31
2023-01-18T13:33:45.835Z,3.24
2023-01-18T13:36:17.228Z,3.24
2023-01-18T13:38:52.044Z,3.24
2023-01-18T13:41:24.729Z,3.20
2023-01-18T13:44:02.612Z,3.17
2023-01-18T13:46:32.876Z,3.14
2023-01-18T13:49:02.622Z,3.11
2023-01-18T13:51:55.396Z,3.09
2023-01-18T13:55:05.207Z,2.97
2023-01-18T13:57:35.316Z,2.95
2023-01-18T14:00:04.805Z,2.92
2023-01-18T14:02:41.812Z,2.86
2023-01-18T14:05:20.020Z,2.84
2023-01-18T14:07:51.349Z,2.81
2023-01-18T14:10:30.286Z,2.75
2023-01-18T14:12:59.278Z,2.71
2023-01-18T14:15:46.758Z,2.67
2023-01-18T14:18:25.826Z,2.62
2023-01-18T14:21:06.119Z,2.57
2023-01-18T14:24:06.991Z,2.52
2023-01-18T14:26:38.529Z,2.47
2023-01-18T14:29:11.030Z,2.42
2023-01-18T14:31:41.812Z,2.37
2023-01-18T14:34:26.473Z,2.30
2023-01-18T14:36:55.038Z,2.26
2023-01-18T14:39:23.356Z,2.20
2023-01-18T14:41:56.129Z,2.16
2023-01-18T14:44:25.905Z,2.09
2023-01-18T14:46:55.414Z,2.07
2023-01-18T14:49:27.287Z,2.04
2023-01-18T14:51:57.011Z,2.00
2023-01-18T14:54:25.896Z,1.95
2023-01-18T14:57:01.317Z,1.90
2023-01-18T14:59:31.007Z,1.85
2023-01-18T15:02:01.017Z,1.77
2023-01-18T15:04:29.995Z,1.71
2023-01-18T15:07:01.913Z,1.61
2023-01-18T15:09:32.963Z,1.54
2023-01-18T15:12:06.848Z,1.48
2023-01-18T15:14:37.730Z,1.39
2023-01-18T15:17:09.555Z,1.32
2023-01-18T15:19:41.523Z,1.26
2023-01-18T15:22:13.334Z,1.20
2023-01-18T15:24:43.887Z,1.13
2023-01-18T15:27:15.487Z,1.06
2023-01-18T15:29:48.058Z,1.01
2023-01-18T15:32:17.598Z,0.95
2023-01-18T15:34:47.565Z,0.88
2023-01-18T15:37:19.935Z,0.84
2023-01-18T15:39:51.190Z,0.79
2023-01-18T15:42:20.648Z,0.74
2023-01-18T15:44:49.870Z,0.69
2023-01-18T15:47:24.725Z,0.63
2023-01-18T15:49:54.782Z,0.57
2023-01-18T15:52:44.921Z,0.50
2023-01-18T15:55:23.104Z,0.46
2023-01-18T15:57:59.301Z,0.40
2023-01-18T16:00:31.362Z,0.36
2023-01-18T16:02:59.500Z,0.34
2023-01-18T16:05:27.802Z,0.31
2023-01-18T16:08:16.498Z,0.28
2023-01-18T16:10:52.612Z,0.25
2023-01-18T16:13:35.904Z,0.22
2023-01-18T16:16:18.289Z,0.17
2023-01-18T16:18:49.421Z,0.15
2023-01-18T16:21:25.952Z,0.12
2023-01-18T16:23:55.055Z,0.11
2023-01-18T16:26:29.170Z,0.08
2023-01-18T16:29:09.116Z,0.04
2023-01-18T16:31:41.371Z,0.04
2023-01-18T16:34:20.093Z,0.03
2023-01-18T16:36:48.033Z,-0.01
2023-01-18T16:39:15.673Z,-0.03
2023-01-18T16:41:48.572Z,-0.04
2023-01-18T16:44:17.928Z,-0.06
2023-01-18T16:46:45.709Z,-0.07
2023-01-18T16:49:13.761Z,-0.09
2023-01-18T16:51:41.540Z,-0.09
2023-01-18T16:54:09.395Z,-0.10
2023-01-18T16:56:37.001Z,-0.11
2023-01-18T16:59:15.335Z,-0.10
2023-01-18T17:01:44.510Z,-0.10
2023-01-18T17:04:12.688Z,-0.12
2023-01-18T17:06:41.308Z,-0.15
2023-01-18T17:09:20.085Z,-0.13
2023-01-18T17:11:47.811Z,-0.17
2023-01-18T17:14:15.470Z,-0.17
2023-01-18T17:16:45.173Z,-0.19
2023-01-18T17:19:14.502Z,-0.20
2023-01-18T17:21:43.175Z,-0.21
2023-01-18T17:24:11.962Z,-0.21
2023-01-18T17:26:41.529Z,-0.22
2023-01-18T17:29:10.327Z,-0.25
2023-01-18T17:31:51.382Z,-0.26
2023-01-18T17:34:27.373Z,-0.28
2023-01-18T17:36:56.831Z,-0.29
2023-01-18T17:39:31.922Z,-0.30
2023-01-18T17:42:12.231Z,-0.31
2023-01-18T17:44:42.177Z,-0.33
2023-01-18T17:47:09.844Z,-0.34
2023-01-18T17:49:38.747Z,-0.34
2023-01-18T17:52:06.515Z,-0.36
2023-01-18T17:54:34.847Z,-0.37
2023-01-18T17:57:02.566Z,-0.38
2023-01-18T17:59:30.146Z,-0.39
2023-01-18T18:01:57.849Z,-0.40
2023-01-18T18:04:25.479Z,-0.42
2023-01-18T18:06:58.259Z,-0.42
2023-01-18T18:09:25.889Z,-0.42
2023-01-18T18:11:53.810Z,-0.44
2023-01-18T18:14:21.404Z,-0.44
2023-01-18T18:16:49.054Z,-0.43
2023-01-18T18:19:17.884Z,-0.44
2023-01-18T18:21:46.114Z,-0.46
2023-01-18T18:24:15.086Z,-0.47
2023-01-18T18:26:42.937Z,-0.48
2023-01-18T18:29:10.471Z,-0.48
2023-01-18T18:31:39.276Z,-0.48
2023-01-18T18:34:07.897Z,-0.49
2023-01-18T18:36:35.825Z,-0.50
2023-01-18T18:39:04.642Z,-0.50
2023-01-18T18:41:33.991Z,-0.52
2023-01-18T18:44:01.975Z,-0.52
2023-01-18T18:46:29.774Z,-0.51
2023-01-18T18:48:57.509Z,-0.54
2023-01-18T18:51:25.493Z,-0.53
2023-01-18T18:53:53.348Z,-0.52
2023-01-18T18:56:21.031Z,-0.53
2023-01-18T18:58:49.978Z,-0.54
2023-01-18T19:01:22.672Z,-0.56
2023-01-18T19:03:51.710Z,-0.57
2023-01-18T19:06:21.009Z,-0.57
2023-01-18T19:08:48.850Z,-0.56
2023-01-18T19:11:16.757Z,-0.58
2023-01-18T19:13:44.602Z,-0.56
2023-01-18T19:16:13.992Z,-0.56
2023-01-18T19:18:42.001Z,-0.56
2023-01-18T19:21:09.605Z,-0.55
2023-01-18T19:23:37.206Z,-0.53
2023-01-18T19:26:04.818Z,-0.53
2023-01-18T19:28:32.411Z,-0.52
2023-01-18T19:31:04.674Z,-0.53
2023-01-18T19:33:33.888Z,-0.51
2023-01-18T19:36:07.723Z,-0.51
2023-01-18T19:38:38.744Z,-0.51
2023-01-18T19:41:11.618Z,-0.50
2023-01-18T19:43:39.686Z,-0.49
2023-01-18T19:46:08.334Z,-0.49
2023-01-18T19:48:39.334Z,-0.49
2023-01-18T19:51:20.759Z,-0.49
2023-01-18T19:53:49.622Z,-0.49
2023-01-18T19:56:17.349Z,-0.48
2023-01-18T19:58:45.587Z,-0.48
2023-01-18T20:01:26.587Z,-0.48
2023-01-18T20:04:04.264Z,-0.48
2023-01-18T20:06:31.849Z,-0.50
2023-01-18T20:08:59.565Z,-0.49
2023-01-18T20:11:27.316Z,-0.46
2023-01-18T20:13:55.839Z,-0.46
2023-01-18T20:16:24.512Z,-0.45
2023-01-18T20:18:52.838Z,-0.43
2023-01-18T20:21:21.824Z,-0.43
2023-01-18T20:23:49.491Z,-0.41
2023-01-18T20:26:27.685Z,-0.38
2023-01-18T20:29:02.833Z,-0.34
2023-01-18T20:31:30.475Z,-0.30
2023-01-18T20:33:58.028Z,-0.24
2023-01-18T20:36:27.838Z,-0.20
2023-01-18T20:38:55.387Z,-0.17
2023-01-18T20:41:22.934Z,-0.17
2023-01-18T20:43:50.532Z,-0.16
2023-01-18T20:46:18.195Z,-0.17
2023-01-18T20:48:45.786Z,-0.15
2023-01-18T20:51:13.574Z,-0.13
2023-01-18T20:53:42.495Z,-0.13
2023-01-18T20:56:27.836Z,-0.10
2023-01-18T20:58:56.934Z,-0.05
2023-01-18T21:01:31.353Z,-0.01
2023-01-18T21:03:59.837Z,0.04
2023-01-18T21:06:27.536Z,0.06
2023-01-18T21:08:57.907Z,0.08
2023-01-18T21:11:26.782Z,0.11
2023-01-18T21:13:56.367Z,0.13
2023-01-18T21:16:24.606Z,0.12
2023-01-18T21:18:53.926Z,0.12
2023-01-18T21:21:21.663Z,0.11
2023-01-18T21:23:49.313Z,0.12
2023-01-18T21:26:18.284Z,0.14
2023-01-18T21:28:46.491Z,0.18
2023-01-18T21:31:14.068Z,0.19
2023-01-18T21:33:42.469Z,0.22
2023-01-18T21:36:13.793Z,0.21
2023-01-18T21:38:41.862Z,0.21
2023-01-18T21:41:27.357Z,0.25
2023-01-18T21:44:13.757Z,0.28
2023-01-18T21:46:45.556Z,0.29
2023-01-18T21:49:49.434Z,0.33
2023-01-18T21:52:38.797Z,0.35
2023-01-18T21:55:06.941Z,0.37
2023-01-18T21:57:34.967Z,0.37
2023-01-18T22:00:05.696Z,0.37
2023-01-18T22:02:33.651Z,0.37
2023-01-18T22:05:03.235Z,0.37
2023-01-18T22:07:32.623Z,0.39
2023-01-18T22:10:05.952Z,0.40
2023-01-18T22:12:35.497Z,0.41
2023-01-18T22:15:05.534Z,0.45
2023-01-18T22:17:33.121Z,0.44
2023-01-18T22:20:01.730Z,0.45
2023-01-18T22:22:29.460Z,0.46
2023-01-18T22:24:59.953Z,0.48
2023-01-18T22:27:27.822Z,0.50
2023-01-18T22:29:55.404Z,0.51
2023-01-18T22:32:24.791Z,0.53
2023-01-18T22:34:52.515Z,0.57
2023-01-18T22:37:20.131Z,0.59
2023-01-18T22:39:47.686Z,0.63
2023-01-18T22:42:15.247Z,0.64
2023-01-18T22:44:42.872Z,0.65
2023-01-18T22:47:10.455Z,0.66
2023-01-18T22:49:39.389Z,0.72
2023-01-18T22:52:06.976Z,0.73
2023-01-18T22:54:34.638Z,0.73
2023-01-18T22:57:02.259Z,0.76
2023-01-18T22:59:29.886Z,0.79
2023-01-18T23:01:58.138Z,0.82
2023-01-18T23:04:25.944Z,0.85
2023-01-18T23:06:57.830Z,0.87
2023-01-18T23:09:26.592Z,0.88
2023-01-18T23:11:54.159Z,0.92
2023-01-18T23:14:39.306Z,0.93
2023-01-18T23:17:24.241Z,0.94
2023-01-18T23:19:51.798Z,0.95
2023-01-18T23:22:20.711Z,0.96
2023-01-18T23:24:48.363Z,0.99
2023-01-18T23:27:15.968Z,0.99
2023-01-18T23:29:43.663Z,1.01
2023-01-18T23:32:11.288Z,1.01
2023-01-18T23:34:39.031Z,1.04
2023-01-18T23:37:06.608Z,1.05
2023-01-18T23:39:53.017Z,1.07
2023-01-18T23:42:38.337Z,1.08
2023-01-18T23:45:24.747Z,1.10
2023-01-18T23:48:09.970Z,1.08
2023-01-18T23:50:55.304Z,1.07
2023-01-18T23:53:40.306Z,1.08
2023-01-18T23:56:09.463Z,1.09
2023-01-18T23:58:39.182Z,1.09
